Time;durP1;ratioP1;P1;durP2;ratioP2;P2;SDS_P1;SDS_P2;PMS_P1;PMS_P2;Temp;Humidity;BMP_temperature;BMP_pressure;BME280_temperature;BME280_humidity;BME280_pressure;Samples;Min_cycle;Max_cycle;Signal;HPM_P1;HPM_P2
2024/04/21 00:01:15;;;;;;;;;;;;;;;;;;5269709;26;86873;-72
2024/04/21 00:03:40;;;;;;;;;;;;;;;;;;5267473;26;86925;-73
2024/04/21 00:06:05;;;;;;;;;;;;;;;;;;5266620;26;90346;-72
2024/04/21 00:08:30;;;;;;;;;;;;;;;;;;5268590;26;86829;-72
2024/04/21 00:10:56;;;;;;;;;;;;;;;;;;5267772;26;88298;-72
2024/04/21 00:13:21;;;;;;;;;;;;;;;;;;5268729;26;87033;-72
2024/04/21 00:15:46;;;;;;;;;;;;;;;;;;5271989;26;86726;-72
2024/04/21 00:18:11;;;;;;;;;;;;;;;;;;5269172;26;86707;-72
2024/04/21 00:20:37;;;;;;;;;;;;;;;;;;5267138;26;89502;-72
2024/04/21 00:23:03;;;;;;;;;;;;;;;;;;5244020;26;86469;-72
2024/04/21 00:25:28;;;;;;;;;;;;;;;;;;5235678;27;87655;-72
2024/04/21 00:27:53;;;;;;;;;;;;;;;;;;5235407;27;87446;-72
2024/04/21 00:30:18;;;;;;;;;;;;;;;;;;5235249;26;87480;-72
2024/04/21 00:32:43;;;;;;;;;;;;;;;;;;5235106;27;87137;-72
2024/04/21 00:35:09;;;;;;;;;;;;;;;;;;5238463;27;87488;-72
2024/04/21 00:37:36;;;;;;;;;;;;;;;;;;5235432;27;87263;-72
2024/04/21 00:40:02;;;;;;;;;;;;;;;;;;5261146;26;88098;-72
2024/04/21 00:42:27;;;;;;;;;;;;;;;;;;5233735;26;86830;-72
2024/04/21 00:44:52;;;;;;;;;;;;;;;;;;5234749;27;87302;-72
2024/04/21 00:47:18;;;;;;;;;;;;;;;;;;5234692;27;86809;-73
2024/04/21 00:49:44;;;;;;;;;;;;;;;;;;5234604;27;87051;-71
2024/04/21 00:52:09;;;;;;;;;;;;;;;;;;5234542;27;87372;-73
2024/04/21 00:54:34;;;;;;;;;;;;;;;;;;5234680;27;86735;-72
2024/04/21 00:57:00;;;;;;;;;;;;;;;;;;5236378;27;87692;-73
2024/04/21 00:59:25;;;;;;;;;;;;;;;;;;5235041;27;87020;-73
2024/04/21 01:01:50;;;;;;;;;;;;;;;;;;5234930;26;87363;-73
2024/04/21 01:04:16;;;;;;;;;;;;;;;;;;5234837;26;87255;-73
2024/04/21 01:06:41;;;;;;;;;;;;;;;;;;5234689;26;87007;-73
2024/04/21 01:09:06;;;;;;;;;;;;;;;;;;5234922;27;86501;-73
2024/04/21 01:11:32;;;;;;;;;;;;;;;;;;5235138;26;87604;-73
2024/04/21 01:13:57;;;;;;;;;;;;;;;;;;5236246;26;86802;-73
2024/04/21 01:16:22;;;;;;;;;;;;;;;;;;5235877;26;86732;-72
2024/04/21 01:18:47;;;;;;;;;;;;;;;;;;5238726;27;87246;-72
2024/04/21 01:21:14;;;;;;;;;;;;;;;;;;5234880;26;89090;-72
2024/04/21 01:23:39;;;;;;;;;;;;;;;;;;5268365;26;87278;-71
2024/04/21 01:26:04;;;;;;;;;;;;;;;;;;5269940;26;86918;-71
2024/04/21 01:28:29;;;;;;;;;;;;;;;;;;5269886;26;86651;-72
2024/04/21 01:30:55;;;;;;;;;;;;;;;;;;5267880;26;88460;-72
2024/04/21 01:33:20;;;;;;;;;;;;;;;;;;5269438;26;86682;-72
2024/04/21 01:35:46;;;;;;;;;;;;;;;;;;5269558;26;86445;-72
2024/04/21 01:38:11;;;;;;;;;;;;;;;;;;5270027;26;87038;-71
2024/04/21 01:40:36;;;;;;;;;;;;;;;;;;5272492;26;87014;-72
2024/04/21 01:43:01;;;;;;;;;;;;;;;;;;5268984;26;87309;-72
2024/04/21 01:45:27;;;;;;;;;;;;;;;;;;5269612;26;87724;-72
2024/04/21 01:47:52;;;;;;;;;;;;;;;;;;5269410;26;87193;-72
2024/04/21 01:50:17;;;;;;;;;;;;;;;;;;5269290;26;87254;-72
2024/04/21 01:52:42;;;;;;;;;;;;;;;;;;5269426;26;86470;-72
2024/04/21 01:55:08;;;;;;;;;;;;;;;;;;5270095;26;88198;-72
2024/04/21 01:57:34;;;;;;;;;;;;;;;;;;5271701;26;87353;-72
2024/04/21 01:59:59;;;;;;;;;;;;;;;;;;5270254;26;87978;-72
2024/04/21 02:02:25;;;;;;;;;;;;;;;;;;5274808;26;86942;-72
2024/04/21 02:04:50;;;;;;;;;;;;;;;;;;5270903;26;86676;-71
2024/04/21 02:07:15;;;;;;;;;;;;;;;;;;5269688;26;88046;-72
2024/04/21 02:09:40;;;;;;;;;;;;;;;;;;5271313;26;87493;-72
2024/04/21 02:12:06;;;;;;;;;;;;;;;;;;5271568;26;87363;-73
2024/04/21 02:14:31;;;;;;;;;;;;;;;;;;5269121;26;87138;-73
2024/04/21 02:16:56;;;;;;;;;;;;;;;;;;5270304;26;86969;-73
2024/04/21 02:19:22;;;;;;;;;;;;;;;;;;5239849;26;87335;-73
2024/04/21 02:21:47;;;;;;;;;;;;;;;;;;5236158;26;86579;-72
2024/04/21 02:24:13;;;;;;;;;;;;;;;;;;5239348;26;87135;-72
2024/04/21 02:26:38;;;;;;;;;;;;;;;;;;5236810;26;86470;-73
2024/04/21 02:29:04;;;;;;;;;;;;;;;;;;5236401;27;86382;-73
2024/04/21 02:31:29;;;;;;;;;;;;;;;;;;5237219;26;87075;-73
2024/04/21 02:33:54;;;;;;;;;;;;;;;;;;5236317;26;86822;-73
2024/04/21 02:36:20;;;;;;;;;;;;;;;;;;5236163;26;87250;-72
2024/04/21 02:38:45;;;;;;;;;;;;;;;;;;5236369;26;87054;-73
2024/04/21 02:41:10;;;;;;;;;;;;;;;;;;5235693;27;86574;-73
2024/04/21 02:43:35;;;;;;;;;;;;;;;;;;5237195;26;89956;-72
2024/04/21 02:46:00;;;;;;;;;;;;;;;;;;5236740;26;86756;-72
2024/04/21 02:48:29;;;;;;;;;;;;;;;;;;5235966;27;86535;-72
2024/04/21 02:50:54;;;;;;;;;;;;;;;;;;5236589;27;87970;-72
2024/04/21 02:53:19;;;;;;;;;;;;;;;;;;5236371;27;87067;-72
2024/04/21 02:55:45;;;;;;;;;;;;;;;;;;5262794;26;89767;-73
2024/04/21 02:58:10;;;;;;;;;;;;;;;;;;5235871;26;86942;-72
2024/04/21 03:00:38;;;;;;;;;;;;;;;;;;5235665;26;86571;-71
2024/04/21 03:03:04;;;;;;;;;;;;;;;;;;5221299;26;87256;-72
2024/04/21 03:05:30;;;;;;;;;;;;;;;;;;5222547;26;87334;-71
2024/04/21 03:07:56;;;;;;;;;;;;;;;;;;5216741;26;86789;-72
2024/04/21 03:10:21;;;;;;;;;;;;;;;;;;5220211;27;87757;-72
2024/04/21 03:12:46;;;;;;;;;;;;;;;;;;5206299;26;87054;-72
2024/04/21 03:15:12;;;;;;;;;;;;;;;;;;5276596;26;90069;-72
2024/04/21 03:17:37;;;;;;;;;;;;;;;;;;5234604;26;86979;-71
2024/04/21 03:20:03;;;;;;;;;;;;;;;;;;5225182;26;87802;-72
2024/04/21 03:22:28;;;;;;;;;;;;;;;;;;5227851;26;88484;-72
2024/04/21 03:24:54;;;;;;;;;;;;;;;;;;5239968;26;90399;-71
2024/04/21 03:27:19;;;;;;;;;;;;;;;;;;5222194;26;86527;-72
2024/04/21 03:29:47;;;;;;;;;;;;;;;;;;5215823;27;86685;-71
2024/04/21 03:32:14;;;;;;;;;;;;;;;;;;5207717;26;89267;-72
2024/04/21 03:34:39;;;;;;;;;;;;;;;;;;5217115;26;90281;-72
2024/04/21 03:37:05;;;;;;;;;;;;;;;;;;5215353;27;87020;-72
2024/04/21 03:39:30;;;;;;;;;;;;;;;;;;5211502;26;87330;-72
2024/04/21 03:41:55;;;;;;;;;;;;;;;;;;5217042;26;87216;-71
2024/04/21 03:44:22;;;;;;;;;;;;;;;;;;5219529;26;86581;-72
2024/04/21 03:46:47;;;;;;;;;;;;;;;;;;5220520;26;87209;-72
2024/04/21 03:49:12;;;;;;;;;;;;;;;;;;5221686;26;87161;-72
2024/04/21 03:51:37;;;;;;;;;;;;;;;;;;5217380;26;86929;-71
2024/04/21 03:54:03;;;;;;;;;;;;;;;;;;5220423;27;87771;-72
2024/04/21 03:56:28;;;;;;;;;;;;;;;;;;5220498;26;86744;-72
2024/04/21 03:58:53;;;;;;;;;;;;;;;;;;5220320;26;86491;-72
2024/04/21 04:01:19;;;;;;;;;;;;;;;;;;5203909;26;86493;-73
2024/04/21 04:03:44;;;;;;;;;;;;;;;;;;5218941;26;87101;-73
2024/04/21 04:06:09;;;;;;;;;;;;;;;;;;5215844;27;86910;-73
2024/04/21 04:08:34;;;;;;;;;;;;;;;;;;5260641;26;89968;-73
2024/04/21 04:10:59;;;;;;;;;;;;;;;;;;5227583;26;87016;-72
2024/04/21 04:13:25;;;;;;;;;;;;;;;;;;5208298;26;87244;-72
2024/04/21 04:15:50;;;;;;;;;;;;;;;;;;5219342;26;86584;-72
2024/04/21 04:18:15;;;;;;;;;;;;;;;;;;5226497;26;86660;-72
2024/04/21 04:20:40;;;;;;;;;;;;;;;;;;5224345;26;87237;-71
2024/04/21 04:23:05;;;;;;;;;;;;;;;;;;5226603;27;88592;-73
2024/04/21 04:25:31;;;;;;;;;;;;;;;;;;5219863;27;86810;-72
2024/04/21 04:27:56;;;;;;;;;;;;;;;;;;5221537;26;88091;-72
2024/04/21 04:30:21;;;;;;;;;;;;;;;;;;5275830;26;87774;-73
2024/04/21 04:32:46;;;;;;;;;;;;;;;;;;5246838;26;88498;-73
2024/04/21 04:35:12;;;;;;;;;;;;;;;;;;5217414;26;87571;-73
2024/04/21 04:37:37;;;;;;;;;;;;;;;;;;5217021;26;88008;-73
2024/04/21 04:40:03;;;;;;;;;;;;;;;;;;5218639;26;87518;-73
2024/04/21 04:42:28;;;;;;;;;;;;;;;;;;5220426;26;87618;-72
2024/04/21 04:44:53;;;;;;;;;;;;;;;;;;5276493;26;87253;-73
2024/04/21 04:47:19;;;;;;;;;;;;;;;;;;5219972;26;87154;-72
2024/04/21 04:49:44;;;;;;;;;;;;;;;;;;5226041;26;86945;-71
2024/04/21 04:52:10;;;;;;;;;;;;;;;;;;5222737;27;86512;-72
2024/04/21 04:54:35;;;;;;;;;;;;;;;;;;5220487;26;86833;-72
2024/04/21 04:57:01;;;;;;;;;;;;;;;;;;5219746;26;86890;-72
2024/04/21 04:59:26;;;;;;;;;;;;;;;;;;5216880;26;87296;-72
2024/04/21 05:01:51;;;;;;;;;;;;;;;;;;5209672;26;87490;-72
2024/04/21 05:04:17;;;;;;;;;;;;;;;;;;5220568;26;86428;-72
2024/04/21 05:06:42;;;;;;;;;;;;;;;;;;5218344;26;87361;-72
2024/04/21 05:09:07;;;;;;;;;;;;;;;;;;5244799;26;88171;-72
2024/04/21 05:11:32;;;;;;;;;;;;;;;;;;5219278;27;86482;-73
2024/04/21 05:13:57;;;;;;;;;;;;;;;;;;5213260;26;87293;-73
2024/04/21 05:16:23;;;;;;;;;;;;;;;;;;5217245;26;86365;-74
2024/04/21 05:18:48;;;;;;;;;;;;;;;;;;5225205;26;87331;-73
2024/04/21 05:21:13;;;;;;;;;;;;;;;;;;5214755;27;87237;-72
2024/04/21 05:23:39;;;;;;;;;;;;;;;;;;5286292;26;87755;-72
2024/04/21 05:26:04;;;;;;;;;;;;;;;;;;5222550;26;87393;-73
2024/04/21 05:28:29;;;;;;;;;;;;;;;;;;5216452;26;89549;-72
2024/04/21 05:30:55;;;;;;;;;;;;;;;;;;5264002;26;87743;-72
2024/04/21 05:33:20;;;;;;;;;;;;;;;;;;5213700;26;87326;-69
2024/04/21 05:35:45;;;;;;;;;;;;;;;;;;5221163;26;87213;-70
2024/04/21 05:38:10;;;;;;;;;;;;;;;;;;5246133;26;89965;-71
2024/04/21 05:40:36;;;;;;;;;;;;;;;;;;5219743;27;86666;-69
2024/04/21 05:43:01;;;;;;;;;;;;;;;;;;5218677;26;86645;-69
2024/04/21 05:45:26;;;;;;;;;;;;;;;;;;5214834;26;87101;-71
2024/04/21 05:47:52;;;;;;;;;;;;;;;;;;5224781;27;87446;-71
2024/04/21 05:50:17;;;;;;;;;;;;;;;;;;5217250;27;87280;-67
2024/04/21 05:52:42;;;;;;;;;;;;;;;;;;5223367;27;87164;-68
2024/04/21 05:55:07;;;;;;;;;;;;;;;;;;5224892;27;86616;-67
2024/04/21 05:57:32;;;;;;;;;;;;;;;;;;5227100;27;86659;-68
2024/04/21 05:59:58;;;;;;;;;;;;;;;;;;5226213;26;86652;-68
2024/04/21 06:02:23;;;;;;;;;;;;;;;;;;5219712;27;86636;-67
2024/04/21 06:04:48;;;;;;;;;;;;;;;;;;5213653;27;86599;-68
2024/04/21 06:07:13;;;;;;;;;;;;;;;;;;5265245;26;89361;-68
2024/04/21 06:09:39;;;;;;;;;;;;;;;;;;5218830;27;87891;-68
2024/04/21 06:12:05;;;;;;;;;;;;;;;;;;5248239;26;88969;-68
2024/04/21 06:14:30;;;;;;;;;;;;;;;;;;5213859;27;87052;-72
2024/04/21 06:16:55;;;;;;;;;;;;;;;;;;5266724;26;86613;-73
2024/04/21 06:19:20;;;;;;;;;;;;;;;;;;5212568;27;87428;-73
2024/04/21 06:21:46;;;;;;;;;;;;;;;;;;5220523;27;86916;-75
2024/04/21 06:24:11;;;;;;;;;;;;;;;;;;5220309;26;88083;-72
2024/04/21 06:26:36;;;;;;;;;;;;;;;;;;5215133;27;87503;-72
2024/04/21 06:29:01;;;;;;;;;;;;;;;;;;5224091;27;87168;-72
2024/04/21 06:31:27;;;;;;;;;;;;;;;;;;5213493;27;86550;-71
2024/04/21 06:33:52;;;;;;;;;;;;;;;;;;5214950;27;86999;-71
2024/04/21 06:36:17;;;;;;;;;;;;;;;;;;5217464;27;86455;-71
2024/04/21 06:38:42;;;;;;;;;;;;;;;;;;5212743;27;90056;-72
2024/04/21 06:41:10;;;;;;;;;;;;;;;;;;5227146;26;88474;-72
2024/04/21 06:43:35;;;;;;;;;;;;;;;;;;5222168;26;87288;-71
2024/04/21 06:46:00;;;;;;;;;;;;;;;;;;5218425;26;87140;-72
2024/04/21 06:48:26;;;;;;;;;;;;;;;;;;5217947;26;86472;-72
2024/04/21 06:50:51;;;;;;;;;;;;;;;;;;5210537;27;87591;-71
2024/04/21 06:53:17;;;;;;;;;;;;;;;;;;5221820;26;87267;-72
2024/04/21 06:55:42;;;;;;;;;;;;;;;;;;5221633;26;86930;-71
2024/04/21 06:58:07;;;;;;;;;;;;;;;;;;5273472;26;88832;-71
2024/04/21 07:00:34;;;;;;;;;;;;;;;;;;5220227;26;86569;-71
2024/04/21 07:02:59;;;;;;;;;;;;;;;;;;5207218;26;87244;-71
2024/04/21 07:05:24;;;;;;;;;;;;;;;;;;5276711;26;88140;-72
2024/04/21 07:07:50;;;;;;;;;;;;;;;;;;5221387;26;86851;-71
2024/04/21 07:10:15;;;;;;;;;;;;;;;;;;5228497;26;87974;-71
2024/04/21 07:12:40;;;;;;;;;;;;;;;;;;5217043;26;87433;-71
2024/04/21 07:15:06;;;;;;;;;;;;;;;;;;5217504;26;87117;-70
2024/04/21 07:17:32;;;;;;;;;;;;;;;;;;5277222;26;90345;-72
2024/04/21 07:19:57;;;;;;;;;;;;;;;;;;5271639;26;89642;-72
2024/04/21 07:22:22;;;;;;;;;;;;;;;;;;5229039;27;86822;-71
2024/04/21 07:24:47;;;;;;;;;;;;;;;;;;5274093;26;87854;-71
2024/04/21 07:27:12;;;;;;;;;;;;;;;;;;5220662;27;86934;-71
2024/04/21 07:29:37;;;;;;;;;;;;;;;;;;5221397;26;87594;-71
2024/04/21 07:32:03;;;;;;;;;;;;;;;;;;5207495;26;87698;-71
2024/04/21 07:34:29;;;;;;;;;;;;;;;;;;5226832;26;87517;-72
2024/04/21 07:36:54;;;;;;;;;;;;;;;;;;5221539;26;86583;-71
2024/04/21 07:39:21;;;;;;;;;;;;;;;;;;5223948;26;87040;-73
2024/04/21 07:41:46;;;;;;;;;;;;;;;;;;5223058;26;87241;-71
2024/04/21 07:44:11;;;;;;;;;;;;;;;;;;5225238;26;90104;-71
2024/04/21 07:46:36;;;;;;;;;;;;;;;;;;5278787;26;87741;-72
2024/04/21 07:49:02;;;;;;;;;;;;;;;;;;5224178;27;87336;-71
2024/04/21 07:51:27;;;;;;;;;;;;;;;;;;5225172;26;87125;-72
2024/04/21 07:53:53;;;;;;;;;;;;;;;;;;5254114;26;86953;-72
2024/04/21 07:56:18;;;;;;;;;;;;;;;;;;5227497;26;87324;-73
2024/04/21 07:58:43;;;;;;;;;;;;;;;;;;5225672;26;87827;-72
2024/04/21 08:01:08;;;;;;;;;;;;;;;;;;5227313;27;86445;-72
2024/04/21 08:03:34;;;;;;;;;;;;;;;;;;5226241;26;88474;-73
2024/04/21 08:06:02;;;;;;;;;;;;;;;;;;5220875;26;86705;-73
2024/04/21 08:08:27;;;;;;;;;;;;;;;;;;5231554;27;87391;-73
2024/04/21 08:10:54;;;;;;;;;;;;;;;;;;5279830;26;89212;-73
2024/04/21 08:13:19;;;;;;;;;;;;;;;;;;5231963;26;87010;-73
2024/04/21 08:15:44;;;;;;;;;;;;;;;;;;5223586;27;87213;-73
2024/04/21 08:18:10;;;;;;;;;;;;;;;;;;5213087;26;87930;-72
2024/04/21 08:20:37;;;;;;;;;;;;;;;;;;5219511;26;87022;-73
2024/04/21 08:23:02;;;;;;;;;;;;;;;;;;5231000;26;87317;-72
2024/04/21 08:25:28;;;;;;;;;;;;;;;;;;5227773;26;87251;-73
2024/04/21 08:27:53;;;;;;;;;;;;;;;;;;5217283;26;86933;-72
2024/04/21 08:30:18;;;;;;;;;;;;;;;;;;5220063;27;88051;-73
2024/04/21 08:32:45;;;;;;;;;;;;;;;;;;5284966;26;88556;-72
2024/04/21 08:35:10;;;;;;;;;;;;;;;;;;5223976;26;87347;-73
2024/04/21 08:37:36;;;;;;;;;;;;;;;;;;5232691;26;86942;-73
2024/04/21 08:40:02;;;;;;;;;;;;;;;;;;5260422;26;87954;-72
2024/04/21 08:42:33;;;;;;;;;;;;;;;;;;5216636;26;88310;-73
2024/04/21 08:44:58;;;;;;;;;;;;;;;;;;5230313;26;88443;-73
2024/04/21 08:47:24;;;;;;;;;;;;;;;;;;5215234;26;87286;-73
2024/04/21 08:49:52;;;;;;;;;;;;;;;;;;5217543;26;86638;-72
2024/04/21 08:52:19;;;;;;;;;;;;;;;;;;5223507;26;87465;-72
2024/04/21 08:54:45;;;;;;;;;;;;;;;;;;5217155;26;88758;-73
2024/04/21 08:57:12;;;;;;;;;;;;;;;;;;5219322;26;87867;-73
2024/04/21 08:59:40;;;;;;;;;;;;;;;;;;5223861;27;89090;-73
2024/04/21 09:02:07;;;;;;;;;;;;;;;;;;5209071;26;88113;-73
2024/04/21 09:04:33;;;;;;;;;;;;;;;;;;5226891;26;87630;-73
2024/04/21 09:06:58;;;;;;;;;;;;;;;;;;5217994;27;86717;-73
2024/04/21 09:09:24;;;;;;;;;;;;;;;;;;5223791;26;86999;-73
2024/04/21 09:11:49;;;;;;;;;;;;;;;;;;5232540;26;86746;-73
2024/04/21 09:14:14;;;;;;;;;;;;;;;;;;5226721;26;88898;-71
2024/04/21 09:16:40;;;;;;;;;;;;;;;;;;5233272;27;87853;-75
2024/04/21 09:19:05;;;;;;;;;;;;;;;;;;5229028;26;87335;-71
2024/04/21 09:21:32;;;;;;;;;;;;;;;;;;5223722;26;87331;-72
2024/04/21 09:23:57;;;;;;;;;;;;;;;;;;5233598;26;88056;-70
2024/04/21 09:26:22;;;;;;;;;;;;;;;;;;5231998;26;87207;-69
2024/04/21 09:28:47;;;;;;;;;;;;;;;;;;5232937;26;87597;-72
2024/04/21 09:31:12;;;;;;;;;;;;;;;;;;5234964;26;87371;-71
2024/04/21 09:33:38;;;;;;;;;;;;;;;;;;5233395;26;87890;-70
2024/04/21 09:36:04;;;;;;;;;;;;;;;;;;5232154;26;87186;-70
2024/04/21 09:38:30;;;;;;;;;;;;;;;;;;5229314;26;86696;-72
2024/04/21 09:40:56;;;;;;;;;;;;;;;;;;5217222;26;88889;-72
2024/04/21 09:43:22;;;;;;;;;;;;;;;;;;5227945;26;87145;-72
2024/04/21 09:45:48;;;;;;;;;;;;;;;;;;5230047;26;87170;-72
2024/04/21 09:48:14;;;;;;;;;;;;;;;;;;5216507;27;87583;-71
2024/04/21 09:50:39;;;;;;;;;;;;;;;;;;5220487;27;89775;-70
2024/04/21 09:53:06;;;;;;;;;;;;;;;;;;5217090;26;88319;-72
2024/04/21 09:55:35;;;;;;;;;;;;;;;;;;5239532;26;89713;-71
2024/04/21 09:58:01;;;;;;;;;;;;;;;;;;5222654;26;86757;-70
2024/04/21 10:00:29;;;;;;;;;;;;;;;;;;5217461;26;88720;-71
2024/04/21 10:02:56;;;;;;;;;;;;;;;;;;5222100;26;88360;-71
2024/04/21 10:05:24;;;;;;;;;;;;;;;;;;5246825;26;87248;-72
2024/04/21 10:07:50;;;;;;;;;;;;;;;;;;5224749;27;87794;-69
2024/04/21 10:10:20;;;;;;;;;;;;;;;;;;5226487;27;88900;-71
2024/04/21 10:12:46;;;;;;;;;;;;;;;;;;5268347;26;87071;-72
2024/04/21 10:15:13;;;;;;;;;;;;;;;;;;5279299;26;90181;-71
2024/04/21 10:17:38;;;;;;;;;;;;;;;;;;5224850;26;86602;-73
2024/04/21 10:20:05;;;;;;;;;;;;;;;;;;5229817;26;87311;-72
2024/04/21 10:22:34;;;;;;;;;;;;;;;;;;5225286;27;87598;-72
2024/04/21 10:24:59;;;;;;;;;;;;;;;;;;5229212;26;87136;-73
2024/04/21 10:27:24;;;;;;;;;;;;;;;;;;5223589;26;87835;-72
2024/04/21 10:29:50;;;;;;;;;;;;;;;;;;5215051;26;87889;-72
2024/04/21 10:32:22;;;;;;;;;;;;;;;;;;5231377;26;86618;-70
2024/04/21 10:34:48;;;;;;;;;;;;;;;;;;5226205;26;87411;-73
2024/04/21 10:37:14;;;;;;;;;;;;;;;;;;5234084;26;88405;-73
2024/04/21 10:39:39;;;;;;;;;;;;;;;;;;5229768;27;86711;-73
2024/04/21 10:42:07;;;;;;;;;;;;;;;;;;5219575;26;87957;-73
2024/04/21 10:44:32;;;;;;;;;;;;;;;;;;5231893;26;87152;-72
2024/04/21 10:46:57;;;;;;;;;;;;;;;;;;5229780;26;89016;-72
2024/04/21 10:49:22;;;;;;;;;;;;;;;;;;5228758;26;89726;-71
2024/04/21 10:51:49;;;;;;;;;;;;;;;;;;5220701;26;87278;-71
2024/04/21 10:54:15;;;;;;;;;;;;;;;;;;5275210;26;90076;-71
2024/04/21 10:56:40;;;;;;;;;;;;;;;;;;5236057;26;87626;-70
2024/04/21 10:59:05;;;;;;;;;;;;;;;;;;5232888;26;87533;-72
2024/04/21 11:01:31;;;;;;;;;;;;;;;;;;5232428;26;86757;-71
2024/04/21 11:03:56;;;;;;;;;;;;;;;;;;5231594;26;86948;-70
2024/04/21 11:06:21;;;;;;;;;;;;;;;;;;5228003;26;88216;-70
2024/04/21 11:08:47;;;;;;;;;;;;;;;;;;5231697;26;88071;-72
2024/04/21 11:11:13;;;;;;;;;;;;;;;;;;5225487;27;86847;-71
2024/04/21 11:13:41;;;;;;;;;;;;;;;;;;5222651;26;87712;-72
2024/04/21 11:16:12;;;;;;;;;;;;;;;;;;5216659;26;87217;-73
2024/04/21 11:18:41;;;;;;;;;;;;;;;;;;5219354;26;87032;-71
2024/04/21 11:21:06;;;;;;;;;;;;;;;;;;5225178;26;88318;-71
2024/04/21 11:23:32;;;;;;;;;;;;;;;;;;5231366;27;87472;-71
2024/04/21 11:25:57;;;;;;;;;;;;;;;;;;5228171;26;87378;-72
2024/04/21 11:28:22;;;;;;;;;;;;;;;;;;5227083;27;86919;-70
2024/04/21 11:30:47;;;;;;;;;;;;;;;;;;5221821;26;87286;-71
2024/04/21 11:33:13;;;;;;;;;;;;;;;;;;5219273;26;87270;-70
2024/04/21 11:35:39;;;;;;;;;;;;;;;;;;5228776;26;87162;-69
2024/04/21 11:38:04;;;;;;;;;;;;;;;;;;5224679;26;87164;-69
2024/04/21 11:40:30;;;;;;;;;;;;;;;;;;5228763;26;87148;-70
2024/04/21 11:42:58;;;;;;;;;;;;;;;;;;5217770;26;86706;-70
2024/04/21 11:45:27;;;;;;;;;;;;;;;;;;5217133;26;88004;-71
2024/04/21 11:47:54;;;;;;;;;;;;;;;;;;5220111;26;86947;-69
2024/04/21 11:50:19;;;;;;;;;;;;;;;;;;5225199;26;87040;-72
2024/04/21 11:52:44;;;;;;;;;;;;;;;;;;5219230;27;87451;-71
2024/04/21 11:55:09;;;;;;;;;;;;;;;;;;5218246;26;87367;-71
2024/04/21 11:57:35;;;;;;;;;;;;;;;;;;5224075;26;87027;-70
2024/04/21 12:00:00;;;;;;;;;;;;;;;;;;5267087;26;88500;-71
2024/04/21 12:02:26;;;;;;;;;;;;;;;;;;5223138;27;88173;-70
2024/04/21 12:04:51;;;;;;;;;;;;;;;;;;5224293;26;87423;-70
2024/04/21 12:07:22;;;;;;;;;;;;;;;;;;5224087;26;87023;-70
2024/04/21 12:09:47;;;;;;;;;;;;;;;;;;5224924;27;87196;-69
2024/04/21 12:12:12;;;;;;;;;;;;;;;;;;5222793;26;87234;-70
2024/04/21 12:14:37;;;;;;;;;;;;;;;;;;5221514;26;89675;-70
2024/04/21 12:17:03;;;;;;;;;;;;;;;;;;5229360;26;86709;-70
2024/04/21 12:19:30;;;;;;;;;;;;;;;;;;5226150;26;86777;-69
2024/04/21 12:21:55;;;;;;;;;;;;;;;;;;5231367;26;88323;-71
2024/04/21 12:24:21;;;;;;;;;;;;;;;;;;5215813;27;87339;-70
2024/04/21 12:26:46;;;;;;;;;;;;;;;;;;5219013;26;87289;-72
2024/04/21 12:29:11;;;;;;;;;;;;;;;;;;5214765;27;87179;-72
2024/04/21 12:31:37;;;;;;;;;;;;;;;;;;5216874;26;87440;-69
2024/04/21 12:34:02;;;;;;;;;;;;;;;;;;5204462;26;88629;-70
2024/04/21 12:36:27;;;;;;;;;;;;;;;;;;5219157;26;87121;-70
2024/04/21 12:38:52;;;;;;;;;;;;;;;;;;5219508;26;87709;-70
2024/04/21 12:41:18;;;;;;;;;;;;;;;;;;5229521;26;88603;-70
2024/04/21 12:43:43;;;;;;;;;;;;;;;;;;5241511;26;88322;-71
2024/04/21 12:46:08;;;;;;;;;;;;;;;;;;5226022;26;88395;-71
2024/04/21 12:48:33;;;;;;;;;;;;;;;;;;5217557;26;87267;-72
2024/04/21 12:50:58;;;;;;;;;;;;;;;;;;5222040;27;88589;-72
2024/04/21 12:53:25;;;;;;;;;;;;;;;;;;5218966;26;87546;-72
2024/04/21 12:55:50;;;;;;;;;;;;;;;;;;5218027;26;87192;-71
2024/04/21 12:58:15;;;;;;;;;;;;;;;;;;5275904;26;90659;-73
2024/04/21 13:00:41;;;;;;;;;;;;;;;;;;5219075;27;88723;-74
2024/04/21 13:03:06;;;;;;;;;;;;;;;;;;5231578;26;88100;-72
2024/04/21 13:05:31;;;;;;;;;;;;;;;;;;5207007;26;87635;-71
2024/04/21 13:08:01;;;;;;;;;;;;;;;;;;5221813;26;87670;-71
2024/04/21 13:10:27;;;;;;;;;;;;;;;;;;5215712;26;87534;-71
2024/04/21 13:12:52;;;;;;;;;;;;;;;;;;5220717;26;88411;-70
2024/04/21 13:15:17;;;;;;;;;;;;;;;;;;5209130;26;87092;-71
2024/04/21 13:17:44;;;;;;;;;;;;;;;;;;5217603;26;89049;-73
2024/04/21 13:20:11;;;;;;;;;;;;;;;;;;5214277;26;87699;-71
2024/04/21 13:22:36;;;;;;;;;;;;;;;;;;5224116;26;87310;-70
2024/04/21 13:25:01;;;;;;;;;;;;;;;;;;5215704;26;87190;-72
2024/04/21 13:27:28;;;;;;;;;;;;;;;;;;5219316;26;87268;-70
2024/04/21 13:29:53;;;;;;;;;;;;;;;;;;5216619;26;87572;-71
2024/04/21 13:32:19;;;;;;;;;;;;;;;;;;5219207;27;86792;-71
2024/04/21 13:34:44;;;;;;;;;;;;;;;;;;5275357;26;87350;-70
2024/04/21 13:37:09;;;;;;;;;;;;;;;;;;5217183;26;87547;-70
2024/04/21 13:39:34;;;;;;;;;;;;;;;;;;5273575;26;89313;-70
2024/04/21 13:41:59;;;;;;;;;;;;;;;;;;5218596;27;86710;-71
2024/04/21 13:44:25;;;;;;;;;;;;;;;;;;5219512;26;87962;-71
2024/04/21 13:46:50;;;;;;;;;;;;;;;;;;5218273;26;87020;-70
2024/04/21 13:49:15;;;;;;;;;;;;;;;;;;5218841;26;87636;-70
2024/04/21 13:51:40;;;;;;;;;;;;;;;;;;5229262;26;87366;-71
2024/04/21 13:54:05;;;;;;;;;;;;;;;;;;5223865;26;87192;-71
2024/04/21 13:56:30;;;;;;;;;;;;;;;;;;5216345;27;87334;-71
2024/04/21 13:58:56;;;;;;;;;;;;;;;;;;5219075;26;88129;-73
2024/04/21 14:01:21;;;;;;;;;;;;;;;;;;5216940;27;88387;-71
2024/04/21 14:03:46;;;;;;;;;;;;;;;;;;5216667;27;88251;-73
2024/04/21 14:06:12;;;;;;;;;;;;;;;;;;5218327;27;87250;-71
2024/04/21 14:08:37;;;;;;;;;;;;;;;;;;5217079;26;87792;-69
2024/04/21 14:11:02;;;;;;;;;;;;;;;;;;5222640;26;88192;-72
2024/04/21 14:13:27;;;;;;;;;;;;;;;;;;5216089;27;87041;-71
2024/04/21 14:15:53;;;;;;;;;;;;;;;;;;5216126;27;87860;-71
2024/04/21 14:18:18;;;;;;;;;;;;;;;;;;5214518;27;87187;-70
2024/04/21 14:20:44;;;;;;;;;;;;;;;;;;5222884;27;87429;-70
2024/04/21 14:23:09;;;;;;;;;;;;;;;;;;5258834;26;89953;-72
2024/04/21 14:25:34;;;;;;;;;;;;;;;;;;5214230;27;87075;-71
2024/04/21 14:27:59;;;;;;;;;;;;;;;;;;5215595;27;87260;-71
2024/04/21 14:30:24;;;;;;;;;;;;;;;;;;5208573;27;87262;-71
2024/04/21 14:32:49;;;;;;;;;;;;;;;;;;5215441;27;86892;-74
2024/04/21 14:35:15;;;;;;;;;;;;;;;;;;5222426;27;87454;-73
2024/04/21 14:37:41;;;;;;;;;;;;;;;;;;5218247;27;87182;-71
2024/04/21 14:40:06;;;;;;;;;;;;;;;;;;5215215;27;87093;-71
2024/04/21 14:42:31;;;;;;;;;;;;;;;;;;5218375;27;88621;-71
2024/04/21 14:45:03;;;;;;;;;;;;;;;;;;5214683;27;88433;-70
2024/04/21 14:47:32;;;;;;;;;;;;;;;;;;5270164;26;88344;-71
2024/04/21 14:49:57;;;;;;;;;;;;;;;;;;5243634;26;89053;-72
2024/04/21 14:52:28;;;;;;;;;;;;;;;;;;5218453;27;87386;-70
2024/04/21 14:54:54;;;;;;;;;;;;;;;;;;5221444;27;87320;-71
2024/04/21 14:57:19;;;;;;;;;;;;;;;;;;5214388;27;87467;-71
2024/04/21 14:59:44;;;;;;;;;;;;;;;;;;5247804;26;87385;-71
2024/04/21 15:02:09;;;;;;;;;;;;;;;;;;5217261;26;87373;-71
2024/04/21 15:04:35;;;;;;;;;;;;;;;;;;5229052;26;88659;-72
2024/04/21 15:07:00;;;;;;;;;;;;;;;;;;5227901;26;87014;-72
2024/04/21 15:09:25;;;;;;;;;;;;;;;;;;5225160;26;87501;-70
2024/04/21 15:11:50;;;;;;;;;;;;;;;;;;5222143;26;88943;-72
2024/04/21 15:14:16;;;;;;;;;;;;;;;;;;5224166;26;87425;-73
2024/04/21 15:16:42;;;;;;;;;;;;;;;;;;5224449;26;87479;-73
2024/04/21 15:19:07;;;;;;;;;;;;;;;;;;5218906;26;87405;-73
2024/04/21 15:21:33;;;;;;;;;;;;;;;;;;5227908;26;88279;-72
2024/04/21 15:23:58;;;;;;;;;;;;;;;;;;5227652;26;87013;-72
2024/04/21 15:26:23;;;;;;;;;;;;;;;;;;5219816;26;87637;-72
2024/04/21 15:28:49;;;;;;;;;;;;;;;;;;5231889;26;88098;-72
2024/04/21 15:31:15;;;;;;;;;;;;;;;;;;5228908;26;87712;-73
2024/04/21 15:33:40;;;;;;;;;;;;;;;;;;5228398;26;86864;-72
2024/04/21 15:36:05;;;;;;;;;;;;;;;;;;5221477;26;87400;-72
2024/04/21 15:38:31;;;;;;;;;;;;;;;;;;5229624;26;86846;-72
2024/04/21 15:40:59;;;;;;;;;;;;;;;;;;5241149;26;90838;-71
2024/04/21 15:43:25;;;;;;;;;;;;;;;;;;5223751;26;88208;-72
2024/04/21 15:45:50;;;;;;;;;;;;;;;;;;5251087;26;86926;-72
2024/04/21 15:48:15;;;;;;;;;;;;;;;;;;5216305;26;87520;-73
2024/04/21 15:50:41;;;;;;;;;;;;;;;;;;5232936;26;86696;-72
2024/04/21 15:53:22;;;;;;;;;;;;;;;;;;5395828;26;80120;-72
2024/04/21 15:55:47;;;;;;;;;;;;;;;;;;5379272;26;87114;-73
2024/04/21 15:58:12;;;;;;;;;;;;;;;;;;5377851;26;88393;-73
2024/04/21 16:00:43;;;;;;;;;;;;;;;;;;5384532;26;87401;-71
2024/04/21 16:03:08;;;;;;;;;;;;;;;;;;5379727;26;88290;-71
2024/04/21 16:05:33;;;;;;;;;;;;;;;;;;5388767;26;87385;-72
2024/04/21 16:07:58;;;;;;;;;;;;;;;;;;5389546;26;87246;-72
2024/04/21 16:10:24;;;;;;;;;;;;;;;;;;5388755;26;88057;-72
2024/04/21 16:12:49;;;;;;;;;;;;;;;;;;5375632;26;87845;-72
2024/04/21 16:15:15;;;;;;;;;;;;;;;;;;5381350;26;87323;-72
2024/04/21 16:17:41;;;;;;;;;;;;;;;;;;5373675;26;87299;-72
2024/04/21 16:20:07;;;;;;;;;;;;;;;;;;5382330;26;88023;-72
2024/04/21 16:22:32;;;;;;;;;;;;;;;;;;5383287;26;89003;-72
2024/04/21 16:24:57;;;;;;;;;;;;;;;;;;5384294;26;87143;-73
2024/04/21 16:27:23;;;;;;;;;;;;;;;;;;5431251;25;87045;-72
2024/04/21 16:29:48;;;;;;;;;;;;;;;;;;5380622;26;87462;-72
2024/04/21 16:32:13;;;;;;;;;;;;;;;;;;5363752;26;87149;-72
2024/04/21 16:34:38;;;;;;;;;;;;;;;;;;5380261;26;86646;-72